Lehigh Acres, FL (33936)

7:20 PM EDT on July 26, 2016 (GMT -0400)
East Lehigh Acres | | Change Station

Elev 30 ft 26.61 °N, 81.62 °W | Updated 7 minutes ago

Scattered Clouds
Scattered Clouds
85.5 °F
Feels Like 92 °F
N
6.3
Wind Variable Wind from East

Today
High -- | Low -- °F
--% Chance of Precip.
Yesterday
High -- | Low -- °F
Precip. -- in
Pressure 30.01 in
Visibility 10.0 miles
Clouds Scattered Clouds 5000 ft
Heat Index 92 °F
Dew Point 72 °F
Humidity 65%
Rainfall 0.02 in
Snow Depth Not available.
6:48 AM 8:17 PM
Waning Gibbous, 50% visible
METAR KRSW 262253Z 20008KT 10SM SCT050 29/22 A3001 RMK AO2 WSHFT 2231 LTG DSNT SW-NW SLP161 T02890222
Pressure 30.01 in
Visibility 10.0 miles
Clouds Scattered Clouds 5000 ft
Heat Index 92 °F
Dew Point 72 °F
Humidity 65%
Rainfall 0.02 in
Snow Depth Not available.
6:48 AM 8:17 PM
Waning Gibbous, 50% visible
METAR KRSW 262253Z 20008KT 10SM SCT050 29/22 A3001 RMK AO2 WSHFT 2231 LTG DSNT SW-NW SLP161 T02890222

10-Day Weather Forecast

Almanac

Astronomy

Jul. 26, 2016 Rise Set
Actual Time
Civil Twilight
Nautical Twilight
Astronomical Twilight
Moon
Length of Visible Light
Length of Day
Tomorrow will be .
, % of the Moon is Illuminated

Today's Extremes

State Highs State Lows

Community

WunderPhotos

Upload Photos

1,927,729 photos uploaded!

WunderBlog® & News

Nearby

Air Quality

  Air Quality AQ Index Pollutant
Not available.

Snow Depth

Station Depth Elevation

Earthquake Activity

City Distance Mag. Time & Date
Minimum magnitude displayed is 2.5.

Coastal Water Temperatures

Place Temperature

Stations

Nearby Weather Stations

Station Location Temp. Windchill Dew Point Humidity Wind Precip. Elev Updated Type
                   

Watches & Warnings

There are currently no watches in effect.